sensor_id;sensor_type;location;lat;lon;timestamp;temperature;humidity
64880;HTU21D;51374;45.124;36.712;2022-09-09T00:04:42;14.49;58.98
64880;HTU21D;51374;45.124;36.712;2022-09-09T00:07:39;14.55;58.96
64880;HTU21D;51374;45.124;36.712;2022-09-09T00:10:28;14.58;59.13
64880;HTU21D;51374;45.124;36.712;2022-09-09T00:18:27;14.64;59.16
64880;HTU21D;51374;45.124;36.712;2022-09-09T00:23:30;14.54;59.34
64880;HTU21D;51374;45.124;36.712;2022-09-09T00:26:17;14.48;59.28
64880;HTU21D;51374;45.124;36.712;2022-09-09T00:28:55;14.43;59.63
64880;HTU21D;51374;45.124;36.712;2022-09-09T00:31:30;14.36;59.80
64880;HTU21D;51374;45.124;36.712;2022-09-09T00:34:09;14.28;59.66
64880;HTU21D;51374;45.124;36.712;2022-09-09T00:36:39;14.22;59.93
64880;HTU21D;51374;45.124;36.712;2022-09-09T00:39:05;14.14;60.27
64880;HTU21D;51374;45.124;36.712;2022-09-09T00:56:13;13.84;60.20
64880;HTU21D;51374;45.124;36.712;2022-09-09T00:59:01;13.84;60.38
64880;HTU21D;51374;45.124;36.712;2022-09-09T01:01:30;13.83;60.46
64880;HTU21D;51374;45.124;36.712;2022-09-09T01:03:56;13.86;60.71
64880;HTU21D;51374;45.124;36.712;2022-09-09T01:06:33;13.86;60.63
64880;HTU21D;51374;45.124;36.712;2022-09-09T01:14:43;13.82;60.96
64880;HTU21D;51374;45.124;36.712;2022-09-09T01:17:31;13.78;61.05
64880;HTU21D;51374;45.124;36.712;2022-09-09T01:20:15;13.74;61.28
64880;HTU21D;51374;45.124;36.712;2022-09-09T01:23:26;13.65;60.98
64880;HTU21D;51374;45.124;36.712;2022-09-09T01:28:49;13.54;61.51
64880;HTU21D;51374;45.124;36.712;2022-09-09T01:31:27;13.53;61.60
64880;HTU21D;51374;45.124;36.712;2022-09-09T01:33:54;13.49;61.67
64880;HTU21D;51374;45.124;36.712;2022-09-09T01:36:29;13.49;62.02
64880;HTU21D;51374;45.124;36.712;2022-09-09T01:38:59;13.45;62.02
64880;HTU21D;51374;45.124;36.712;2022-09-09T01:41:25;13.41;61.71
64880;HTU21D;51374;45.124;36.712;2022-09-09T01:44:04;13.38;62.01
64880;HTU21D;51374;45.124;36.712;2022-09-09T01:46:33;13.34;62.24
64880;HTU21D;51374;45.124;36.712;2022-09-09T01:49:02;13.36;62.52
64880;HTU21D;51374;45.124;36.712;2022-09-09T01:51:30;13.34;62.24
64880;HTU21D;51374;45.124;36.712;2022-09-09T01:53:59;13.32;62.36
64880;HTU21D;51374;45.124;36.712;2022-09-09T02:07:40;13.47;62.48
64880;HTU21D;51374;45.124;36.712;2022-09-09T02:10:21;13.51;62.55
64880;HTU21D;51374;45.124;36.712;2022-09-09T02:13:09;13.59;62.67
64880;HTU21D;51374;45.124;36.712;2022-09-09T02:18:08;13.73;62.84
64880;HTU21D;51374;45.124;36.712;2022-09-09T02:20:38;13.77;62.91
64880;HTU21D;51374;45.124;36.712;2022-09-09T02:23:05;13.82;63.37
64880;HTU21D;51374;45.124;36.712;2022-09-09T02:25:34;13.83;63.47
64880;HTU21D;51374;45.124;36.712;2022-09-09T02:28:11;13.82;63.58
64880;HTU21D;51374;45.124;36.712;2022-09-09T02:30:41;13.80;63.31
64880;HTU21D;51374;45.124;36.712;2022-09-09T02:33:09;13.77;63.51
64880;HTU21D;51374;45.124;36.712;2022-09-09T02:35:45;13.73;63.70
64880;HTU21D;51374;45.124;36.712;2022-09-09T02:38:15;13.71;63.58
64880;HTU21D;51374;45.124;36.712;2022-09-09T02:40:51;13.67;63.95
64880;HTU21D;51374;45.124;36.712;2022-09-09T02:43:17;13.64;63.89
64880;HTU21D;51374;45.124;36.712;2022-09-09T02:45:53;13.59;63.92
64880;HTU21D;51374;45.124;36.712;2022-09-09T02:48:31;13.55;63.93
64880;HTU21D;51374;45.124;36.712;2022-09-09T02:51:24;13.55;64.40
64880;HTU21D;51374;45.124;36.712;2022-09-09T02:56:53;13.52;64.25
64880;HTU21D;51374;45.124;36.712;2022-09-09T02:59:30;13.50;64.56
64880;HTU21D;51374;45.124;36.712;2022-09-09T03:01:56;13.48;65.41
64880;HTU21D;51374;45.124;36.712;2022-09-09T03:04:23;13.45;64.95
64880;HTU21D;51374;45.124;36.712;2022-09-09T03:06:51;13.44;65.01
64880;HTU21D;51374;45.124;36.712;2022-09-09T03:09:19;13.43;65.46
64880;HTU21D;51374;45.124;36.712;2022-09-09T03:11:45;13.39;65.59
64880;HTU21D;51374;45.124;36.712;2022-09-09T03:14:13;13.37;65.62
64880;HTU21D;51374;45.124;36.712;2022-09-09T03:16:40;13.35;65.63
64880;HTU21D;51374;45.124;36.712;2022-09-09T03:19:06;13.33;65.74
64880;HTU21D;51374;45.124;36.712;2022-09-09T03:21:32;13.31;65.64
64880;HTU21D;51374;45.124;36.712;2022-09-09T03:23:59;13.32;65.67
64880;HTU21D;51374;45.124;36.712;2022-09-09T03:26:24;13.31;65.62
64880;HTU21D;51374;45.124;36.712;2022-09-09T03:28:50;13.31;65.61
64880;HTU21D;51374;45.124;36.712;2022-09-09T03:31:19;13.32;65.99
64880;HTU21D;51374;45.124;36.712;2022-09-09T03:33:46;13.37;66.01
64880;HTU21D;51374;45.124;36.712;2022-09-09T03:36:15;13.39;65.86
64880;HTU21D;51374;45.124;36.712;2022-09-09T03:38:41;13.45;66.22
64880;HTU21D;51374;45.124;36.712;2022-09-09T03:41:08;13.52;65.85
64880;HTU21D;51374;45.124;36.712;2022-09-09T03:43:34;13.60;66.39
64880;HTU21D;51374;45.124;36.712;2022-09-09T03:46:00;13.66;66.45
64880;HTU21D;51374;45.124;36.712;2022-09-09T03:48:28;13.75;66.40
64880;HTU21D;51374;45.124;36.712;2022-09-09T03:50:55;13.85;66.55
64880;HTU21D;51374;45.124;36.712;2022-09-09T03:53:27;13.94;66.39
64880;HTU21D;51374;45.124;36.712;2022-09-09T03:55:56;14.04;66.14
64880;HTU21D;51374;45.124;36.712;2022-09-09T03:58:27;14.12;65.63
64880;HTU21D;51374;45.124;36.712;2022-09-09T04:03:27;14.35;65.55
64880;HTU21D;51374;45.124;36.712;2022-09-09T04:05:54;14.44;65.64
64880;HTU21D;51374;45.124;36.712;2022-09-09T04:08:22;14.56;65.60
64880;HTU21D;51374;45.124;36.712;2022-09-09T04:10:51;14.70;65.74
64880;HTU21D;51374;45.124;36.712;2022-09-09T04:13:18;14.83;66.30
64880;HTU21D;51374;45.124;36.712;2022-09-09T04:15:53;14.97;65.91
64880;HTU21D;51374;45.124;36.712;2022-09-09T04:18:20;15.09;65.96
64880;HTU21D;51374;45.124;36.712;2022-09-09T04:20:51;15.24;65.81
64880;HTU21D;51374;45.124;36.712;2022-09-09T04:23:20;15.38;65.56
64880;HTU21D;51374;45.124;36.712;2022-09-09T04:25:48;15.53;65.39
64880;HTU21D;51374;45.124;36.712;2022-09-09T04:28:16;15.68;65.45
64880;HTU21D;51374;45.124;36.712;2022-09-09T04:30:43;15.77;65.27
64880;HTU21D;51374;45.124;36.712;2022-09-09T04:33:10;15.87;65.30
64880;HTU21D;51374;45.124;36.712;2022-09-09T04:35:37;15.97;65.21
64880;HTU21D;51374;45.124;36.712;2022-09-09T04:38:05;16.03;65.53
64880;HTU21D;51374;45.124;36.712;2022-09-09T04:40:33;16.11;65.41
64880;HTU21D;51374;45.124;36.712;2022-09-09T04:43:02;16.16;65.23
64880;HTU21D;51374;45.124;36.712;2022-09-09T04:45:31;16.25;65.12
64880;HTU21D;51374;45.124;36.712;2022-09-09T04:47:59;16.37;65.07
64880;HTU21D;51374;45.124;36.712;2022-09-09T04:50:25;16.48;64.89
64880;HTU21D;51374;45.124;36.712;2022-09-09T04:53:00;16.59;64.91
64880;HTU21D;51374;45.124;36.712;2022-09-09T04:55:28;16.70;64.77
64880;HTU21D;51374;45.124;36.712;2022-09-09T04:57:54;16.86;64.74
64880;HTU21D;51374;45.124;36.712;2022-09-09T05:00:20;17.03;64.66
64880;HTU21D;51374;45.124;36.712;2022-09-09T05:02:48;17.26;64.66
64880;HTU21D;51374;45.124;36.712;2022-09-09T05:05:14;17.48;64.76
64880;HTU21D;51374;45.124;36.712;2022-09-09T05:07:41;17.66;64.47
64880;HTU21D;51374;45.124;36.712;2022-09-09T05:10:08;17.85;64.72
64880;HTU21D;51374;45.124;36.712;2022-09-09T05:12:35;18.08;64.49
64880;HTU21D;51374;45.124;36.712;2022-09-09T05:15:01;18.33;64.26
64880;HTU21D;51374;45.124;36.712;2022-09-09T05:17:27;18.54;64.17
64880;HTU21D;51374;45.124;36.712;2022-09-09T05:19:54;18.73;64.13
64880;HTU21D;51374;45.124;36.712;2022-09-09T05:22:20;18.86;64.09
64880;HTU21D;51374;45.124;36.712;2022-09-09T05:24:50;18.94;63.74
64880;HTU21D;51374;45.124;36.712;2022-09-09T05:27:19;18.97;64.10
64880;HTU21D;51374;45.124;36.712;2022-09-09T05:29:46;18.97;63.83
64880;HTU21D;51374;45.124;36.712;2022-09-09T05:32:14;19.02;64.14
64880;HTU21D;51374;45.124;36.712;2022-09-09T05:34:44;19.13;63.99
64880;HTU21D;51374;45.124;36.712;2022-09-09T05:37:11;19.27;63.85
64880;HTU21D;51374;45.124;36.712;2022-09-09T05:39:37;19.43;63.83
64880;HTU21D;51374;45.124;36.712;2022-09-09T05:42:04;19.58;63.78
64880;HTU21D;51374;45.124;36.712;2022-09-09T05:44:32;19.71;63.50
64880;HTU21D;51374;45.124;36.712;2022-09-09T05:47:00;19.84;63.54
64880;HTU21D;51374;45.124;36.712;2022-09-09T05:49:26;19.98;63.24
64880;HTU21D;51374;45.124;36.712;2022-09-09T05:51:52;20.10;63.07
64880;HTU21D;51374;45.124;36.712;2022-09-09T05:54:20;20.19;63.15
64880;HTU21D;51374;45.124;36.712;2022-09-09T05:56:49;20.31;62.99
64880;HTU21D;51374;45.124;36.712;2022-09-09T05:59:16;20.43;62.89
64880;HTU21D;51374;45.124;36.712;2022-09-09T06:01:42;20.54;62.78
64880;HTU21D;51374;45.124;36.712;2022-09-09T06:04:23;20.68;62.71
64880;HTU21D;51374;45.124;36.712;2022-09-09T06:06:50;20.74;62.89
64880;HTU21D;51374;45.124;36.712;2022-09-09T06:09:19;20.83;62.62
64880;HTU21D;51374;45.124;36.712;2022-09-09T06:11:45;20.92;62.70
64880;HTU21D;51374;45.124;36.712;2022-09-09T06:14:13;21.04;62.49
64880;HTU21D;51374;45.124;36.712;2022-09-09T06:16:39;21.20;62.34
64880;HTU21D;51374;45.124;36.712;2022-09-09T06:19:15;21.29;62.26
64880;HTU21D;51374;45.124;36.712;2022-09-09T06:21:41;21.34;62.20
64880;HTU21D;51374;45.124;36.712;2022-09-09T06:24:10;21.33;62.13
64880;HTU21D;51374;45.124;36.712;2022-09-09T06:26:40;21.32;62.10
64880;HTU21D;51374;45.124;36.712;2022-09-09T06:29:08;21.33;62.15
64880;HTU21D;51374;45.124;36.712;2022-09-09T06:31:35;21.30;62.10
64880;HTU21D;51374;45.124;36.712;2022-09-09T06:34:19;21.25;62.21
64880;HTU21D;51374;45.124;36.712;2022-09-09T06:36:48;21.25;62.15
64880;HTU21D;51374;45.124;36.712;2022-09-09T06:39:15;21.28;62.15
64880;HTU21D;51374;45.124;36.712;2022-09-09T06:41:42;21.33;62.10
64880;HTU21D;51374;45.124;36.712;2022-09-09T06:44:20;21.35;62.06
64880;HTU21D;51374;45.124;36.712;2022-09-09T06:46:46;21.39;62.05
64880;HTU21D;51374;45.124;36.712;2022-09-09T06:49:14;21.46;61.99
64880;HTU21D;51374;45.124;36.712;2022-09-09T06:51:41;21.52;61.91
64880;HTU21D;51374;45.124;36.712;2022-09-09T06:54:11;21.55;61.96
64880;HTU21D;51374;45.124;36.712;2022-09-09T06:56:42;21.57;61.89
64880;HTU21D;51374;45.124;36.712;2022-09-09T06:59:22;21.59;61.82
64880;HTU21D;51374;45.124;36.712;2022-09-09T07:01:49;21.57;61.78
64880;HTU21D;51374;45.124;36.712;2022-09-09T07:04:18;21.55;61.74
64880;HTU21D;51374;45.124;36.712;2022-09-09T07:06:45;21.53;61.75
64880;HTU21D;51374;45.124;36.712;2022-09-09T07:09:16;21.54;61.77
64880;HTU21D;51374;45.124;36.712;2022-09-09T07:11:49;21.67;61.85
64880;HTU21D;51374;45.124;36.712;2022-09-09T07:14:20;21.84;61.64
64880;HTU21D;51374;45.124;36.712;2022-09-09T07:16:51;22.01;61.49
64880;HTU21D;51374;45.124;36.712;2022-09-09T07:19:18;22.10;61.31
64880;HTU21D;51374;45.124;36.712;2022-09-09T07:21:47;22.18;61.24
64880;HTU21D;51374;45.124;36.712;2022-09-09T07:24:17;22.21;61.18
64880;HTU21D;51374;45.124;36.712;2022-09-09T07:26:43;22.19;61.15
64880;HTU21D;51374;45.124;36.712;2022-09-09T07:29:11;22.13;61.17
64880;HTU21D;51374;45.124;36.712;2022-09-09T07:31:41;22.09;61.23
64880;HTU21D;51374;45.124;36.712;2022-09-09T07:34:11;22.05;61.29
64880;HTU21D;51374;45.124;36.712;2022-09-09T07:36:39;22.03;61.36
64880;HTU21D;51374;45.124;36.712;2022-09-09T07:39:10;21.97;61.38
64880;HTU21D;51374;45.124;36.712;2022-09-09T07:41:45;21.91;61.44
64880;HTU21D;51374;45.124;36.712;2022-09-09T07:44:23;21.84;61.54
64880;HTU21D;51374;45.124;36.712;2022-09-09T07:47:13;21.81;61.56
64880;HTU21D;51374;45.124;36.712;2022-09-09T07:49:43;21.75;61.57
64880;HTU21D;51374;45.124;36.712;2022-09-09T07:52:09;21.69;61.63
64880;HTU21D;51374;45.124;36.712;2022-09-09T07:54:39;21.64;61.64
64880;HTU21D;51374;45.124;36.712;2022-09-09T07:57:06;21.60;61.68
64880;HTU21D;51374;45.124;36.712;2022-09-09T07:59:34;21.55;61.72
64880;HTU21D;51374;45.124;36.712;2022-09-09T08:02:01;21.54;61.76
64880;HTU21D;51374;45.124;36.712;2022-09-09T08:04:30;21.51;61.80
64880;HTU21D;51374;45.124;36.712;2022-09-09T08:06:59;21.51;61.85
64880;HTU21D;51374;45.124;36.712;2022-09-09T08:09:27;21.52;61.85
64880;HTU21D;51374;45.124;36.712;2022-09-09T08:12:04;21.53;61.83
64880;HTU21D;51374;45.124;36.712;2022-09-09T08:14:33;21.57;61.87
64880;HTU21D;51374;45.124;36.712;2022-09-09T08:16:59;21.60;61.84
64880;HTU21D;51374;45.124;36.712;2022-09-09T08:19:27;21.63;61.87
64880;HTU21D;51374;45.124;36.712;2022-09-09T08:21:56;21.70;61.89
64880;HTU21D;51374;45.124;36.712;2022-09-09T08:24:22;21.79;61.82
64880;HTU21D;51374;45.124;36.712;2022-09-09T08:26:49;21.83;61.87
64880;HTU21D;51374;45.124;36.712;2022-09-09T08:29:18;21.90;61.75
64880;HTU21D;51374;45.124;36.712;2022-09-09T08:31:48;21.93;61.73
64880;HTU21D;51374;45.124;36.712;2022-09-09T08:34:16;21.99;61.71
64880;HTU21D;51374;45.124;36.712;2022-09-09T08:36:48;22.08;61.68
64880;HTU21D;51374;45.124;36.712;2022-09-09T08:39:17;22.13;61.63
64880;HTU21D;51374;45.124;36.712;2022-09-09T08:52:23;22.58;61.39
64880;HTU21D;51374;45.124;36.712;2022-09-09T08:54:51;22.81;61.28
64880;HTU21D;51374;45.124;36.712;2022-09-09T08:57:22;23.05;61.02
64880;HTU21D;51374;45.124;36.712;2022-09-09T08:59:53;23.27;60.81
64880;HTU21D;51374;45.124;36.712;2022-09-09T09:02:27;23.52;60.60
64880;HTU21D;51374;45.124;36.712;2022-09-09T09:05:09;23.75;60.38
64880;HTU21D;51374;45.124;36.712;2022-09-09T09:08:03;23.98;60.17
64880;HTU21D;51374;45.124;36.712;2022-09-09T09:13:01;24.30;59.81
64880;HTU21D;51374;45.124;36.712;2022-09-09T09:15:37;24.45;59.68
64880;HTU21D;51374;45.124;36.712;2022-09-09T09:18:05;24.55;59.57
64880;HTU21D;51374;45.124;36.712;2022-09-09T09:20:53;24.64;59.41
64880;HTU21D;51374;45.124;36.712;2022-09-09T09:23:24;24.72;59.31
64880;HTU21D;51374;45.124;36.712;2022-09-09T09:25:58;24.76;59.23
64880;HTU21D;51374;45.124;36.712;2022-09-09T09:28:29;24.80;59.19
64880;HTU21D;51374;45.124;36.712;2022-09-09T09:36:09;24.87;59.15
64880;HTU21D;51374;45.124;36.712;2022-09-09T09:38:39;24.93;58.99
64880;HTU21D;51374;45.124;36.712;2022-09-09T09:41:05;24.99;58.90
64880;HTU21D;51374;45.124;36.712;2022-09-09T09:43:36;25.07;58.78
64880;HTU21D;51374;45.124;36.712;2022-09-09T09:46:20;25.15;58.65
64880;HTU21D;51374;45.124;36.712;2022-09-09T09:49:00;25.27;58.57
64880;HTU21D;51374;45.124;36.712;2022-09-09T09:51:30;25.37;58.47
64880;HTU21D;51374;45.124;36.712;2022-09-09T09:56:40;25.57;58.17
64880;HTU21D;51374;45.124;36.712;2022-09-09T10:01:46;25.62;58.10
64880;HTU21D;51374;45.124;36.712;2022-09-09T10:04:18;25.61;58.03
64880;HTU21D;51374;45.124;36.712;2022-09-09T10:06:47;25.62;58.06
64880;HTU21D;51374;45.124;36.712;2022-09-09T10:09:23;25.62;58.06
64880;HTU21D;51374;45.124;36.712;2022-09-09T10:14:45;25.66;58.02
64880;HTU21D;51374;45.124;36.712;2022-09-09T10:20:13;25.82;57.84
64880;HTU21D;51374;45.124;36.712;2022-09-09T10:22:47;25.86;57.72
64880;HTU21D;51374;45.124;36.712;2022-09-09T10:25:52;25.87;57.61
64880;HTU21D;51374;45.124;36.712;2022-09-09T10:28:59;25.88;57.59
64880;HTU21D;51374;45.124;36.712;2022-09-09T10:36:50;26.05;57.29
64880;HTU21D;51374;45.124;36.712;2022-09-09T10:39:35;26.09;57.23
64880;HTU21D;51374;45.124;36.712;2022-09-09T10:42:12;26.17;57.18
64880;HTU21D;51374;45.124;36.712;2022-09-09T10:45:00;26.23;57.08
64880;HTU21D;51374;45.124;36.712;2022-09-09T10:50:17;26.35;56.97
64880;HTU21D;51374;45.124;36.712;2022-09-09T10:53:00;26.39;56.93
64880;HTU21D;51374;45.124;36.712;2022-09-09T10:55:39;26.47;56.77
64880;HTU21D;51374;45.124;36.712;2022-09-09T10:58:12;26.54;56.66
64880;HTU21D;51374;45.124;36.712;2022-09-09T11:00:44;26.55;56.59
64880;HTU21D;51374;45.124;36.712;2022-09-09T11:03:26;26.63;56.57
64880;HTU21D;51374;45.124;36.712;2022-09-09T11:06:05;26.67;56.52
64880;HTU21D;51374;45.124;36.712;2022-09-09T11:08:34;26.66;56.46
64880;HTU21D;51374;45.124;36.712;2022-09-09T11:11:39;26.67;56.45
64880;HTU21D;51374;45.124;36.712;2022-09-09T11:16:47;26.83;56.32
64880;HTU21D;51374;45.124;36.712;2022-09-09T11:19:34;26.93;56.23
64880;HTU21D;51374;45.124;36.712;2022-09-09T11:24:35;26.99;56.13
64880;HTU21D;51374;45.124;36.712;2022-09-09T11:37:38;26.57;56.36
64880;HTU21D;51374;45.124;36.712;2022-09-09T11:42:42;26.20;56.61
64880;HTU21D;51374;45.124;36.712;2022-09-09T11:45:10;26.04;56.75
64880;HTU21D;51374;45.124;36.712;2022-09-09T11:47:36;25.99;56.92
64880;HTU21D;51374;45.124;36.712;2022-09-09T11:52:40;26.22;56.74
64880;HTU21D;51374;45.124;36.712;2022-09-09T11:55:28;26.40;56.54
64880;HTU21D;51374;45.124;36.712;2022-09-09T11:57:59;26.53;56.39
64880;HTU21D;51374;45.124;36.712;2022-09-09T12:00:37;26.67;56.17
64880;HTU21D;51374;45.124;36.712;2022-09-09T12:03:05;26.77;56.10
64880;HTU21D;51374;45.124;36.712;2022-09-09T12:05:40;26.82;55.97
64880;HTU21D;51374;45.124;36.712;2022-09-09T12:08:11;26.80;55.95
64880;HTU21D;51374;45.124;36.712;2022-09-09T12:10:53;26.81;55.95
64880;HTU21D;51374;45.124;36.712;2022-09-09T12:13:21;26.84;55.94
64880;HTU21D;51374;45.124;36.712;2022-09-09T12:15:51;26.86;55.90
64880;HTU21D;51374;45.124;36.712;2022-09-09T12:18:33;26.91;55.87
64880;HTU21D;51374;45.124;36.712;2022-09-09T12:26:36;26.99;55.73
64880;HTU21D;51374;45.124;36.712;2022-09-09T12:32:11;27.04;55.69
64880;HTU21D;51374;45.124;36.712;2022-09-09T12:34:44;27.08;55.60
64880;HTU21D;51374;45.124;36.712;2022-09-09T12:37:32;27.11;55.55
64880;HTU21D;51374;45.124;36.712;2022-09-09T12:40:02;27.10;55.56
64880;HTU21D;51374;45.124;36.712;2022-09-09T12:42:29;27.11;55.56
64880;HTU21D;51374;45.124;36.712;2022-09-09T12:45:00;27.15;55.52
64880;HTU21D;51374;45.124;36.712;2022-09-09T12:47:33;27.19;55.44
64880;HTU21D;51374;45.124;36.712;2022-09-09T12:50:02;27.10;55.45
64880;HTU21D;51374;45.124;36.712;2022-09-09T12:52:32;26.98;55.49
64880;HTU21D;51374;45.124;36.712;2022-09-09T12:55:02;26.81;55.60
64880;HTU21D;51374;45.124;36.712;2022-09-09T12:57:36;26.64;55.76
64880;HTU21D;51374;45.124;36.712;2022-09-09T13:00:05;26.56;55.90
64880;HTU21D;51374;45.124;36.712;2022-09-09T13:02:32;26.53;56.00
64880;HTU21D;51374;45.124;36.712;2022-09-09T13:05:13;26.55;55.99
64880;HTU21D;51374;45.124;36.712;2022-09-09T13:07:40;26.54;55.97
64880;HTU21D;51374;45.124;36.712;2022-09-09T13:10:11;26.56;55.93
64880;HTU21D;51374;45.124;36.712;2022-09-09T13:12:37;26.55;55.93
64880;HTU21D;51374;45.124;36.712;2022-09-09T13:15:03;26.56;55.91
64880;HTU21D;51374;45.124;36.712;2022-09-09T13:17:30;26.58;55.92
64880;HTU21D;51374;45.124;36.712;2022-09-09T13:19:57;26.58;55.92
64880;HTU21D;51374;45.124;36.712;2022-09-09T13:22:30;26.58;55.92
64880;HTU21D;51374;45.124;36.712;2022-09-09T13:25:06;26.56;55.89
64880;HTU21D;51374;45.124;36.712;2022-09-09T13:28:01;26.52;55.88
64880;HTU21D;51374;45.124;36.712;2022-09-09T13:30:30;26.48;55.90
64880;HTU21D;51374;45.124;36.712;2022-09-09T13:33:50;26.41;55.87
64880;HTU21D;51374;45.124;36.712;2022-09-09T13:35:54;26.33;55.95
64880;HTU21D;51374;45.124;36.712;2022-09-09T13:38:20;26.26;56.00
64880;HTU21D;51374;45.124;36.712;2022-09-09T13:41:18;26.13;56.05
64880;HTU21D;51374;45.124;36.712;2022-09-09T13:43:47;26.03;56.12
64880;HTU21D;51374;45.124;36.712;2022-09-09T13:46:40;25.93;56.18
64880;HTU21D;51374;45.124;36.712;2022-09-09T13:51:40;25.82;56.34
64880;HTU21D;51374;45.124;36.712;2022-09-09T13:54:11;25.81;56.32
64880;HTU21D;51374;45.124;36.712;2022-09-09T13:56:38;25.77;56.29
64880;HTU21D;51374;45.124;36.712;2022-09-09T13:59:08;25.69;56.26
64880;HTU21D;51374;45.124;36.712;2022-09-09T14:01:35;25.60;56.38
64880;HTU21D;51374;45.124;36.712;2022-09-09T14:04:01;25.50;56.44
64880;HTU21D;51374;45.124;36.712;2022-09-09T14:06:27;25.40;56.53
64880;HTU21D;51374;45.124;36.712;2022-09-09T14:08:54;25.32;56.62
64880;HTU21D;51374;45.124;36.712;2022-09-09T14:11:21;25.21;56.72
64880;HTU21D;51374;45.124;36.712;2022-09-09T14:13:48;25.13;56.72
64880;HTU21D;51374;45.124;36.712;2022-09-09T14:16:18;25.04;56.82
64880;HTU21D;51374;45.124;36.712;2022-09-09T14:18:45;24.97;56.91
64880;HTU21D;51374;45.124;36.712;2022-09-09T14:21:11;24.88;56.98
64880;HTU21D;51374;45.124;36.712;2022-09-09T14:23:38;24.79;57.06
64880;HTU21D;51374;45.124;36.712;2022-09-09T14:26:05;24.71;57.12
64880;HTU21D;51374;45.124;36.712;2022-09-09T14:28:32;24.66;57.17
64880;HTU21D;51374;45.124;36.712;2022-09-09T14:31:04;24.68;57.16
64880;HTU21D;51374;45.124;36.712;2022-09-09T14:33:31;24.68;57.12
64880;HTU21D;51374;45.124;36.712;2022-09-09T14:35:58;24.66;57.08
64880;HTU21D;51374;45.124;36.712;2022-09-09T14:38:26;24.65;57.07
64880;HTU21D;51374;45.124;36.712;2022-09-09T14:40:54;24.64;57.07
64880;HTU21D;51374;45.124;36.712;2022-09-09T14:43:19;24.63;57.07
64880;HTU21D;51374;45.124;36.712;2022-09-09T14:45:46;24.65;57.02
64880;HTU21D;51374;45.124;36.712;2022-09-09T14:48:14;24.63;57.00
64880;HTU21D;51374;45.124;36.712;2022-09-09T14:50:40;24.57;57.04
64880;HTU21D;51374;45.124;36.712;2022-09-09T14:53:07;24.54;57.11
64880;HTU21D;51374;45.124;36.712;2022-09-09T14:55:34;24.48;57.16
64880;HTU21D;51374;45.124;36.712;2022-09-09T14:58:00;24.41;57.23
64880;HTU21D;51374;45.124;36.712;2022-09-09T15:00:26;24.29;57.31
64880;HTU21D;51374;45.124;36.712;2022-09-09T15:02:55;24.17;57.44
64880;HTU21D;51374;45.124;36.712;2022-09-09T15:05:21;24.03;57.60
64880;HTU21D;51374;45.124;36.712;2022-09-09T15:07:48;23.88;57.76
64880;HTU21D;51374;45.124;36.712;2022-09-09T15:10:14;23.75;57.91
64880;HTU21D;51374;45.124;36.712;2022-09-09T15:12:40;23.65;58.03
64880;HTU21D;51374;45.124;36.712;2022-09-09T15:15:07;23.56;58.14
64880;HTU21D;51374;45.124;36.712;2022-09-09T15:17:34;23.47;58.21
64880;HTU21D;51374;45.124;36.712;2022-09-09T15:20:01;23.39;58.30
64880;HTU21D;51374;45.124;36.712;2022-09-09T15:22:27;23.30;58.41
64880;HTU21D;51374;45.124;36.712;2022-09-09T15:24:53;23.22;58.47
64880;HTU21D;51374;45.124;36.712;2022-09-09T15:27:19;23.17;58.54
64880;HTU21D;51374;45.124;36.712;2022-09-09T15:29:45;23.14;58.53
64880;HTU21D;51374;45.124;36.712;2022-09-09T15:32:11;23.08;58.61
64880;HTU21D;51374;45.124;36.712;2022-09-09T15:34:37;23.02;58.68
64880;HTU21D;51374;45.124;36.712;2022-09-09T15:37:02;22.95;58.78
64880;HTU21D;51374;45.124;36.712;2022-09-09T15:39:28;22.86;58.91
64880;HTU21D;51374;45.124;36.712;2022-09-09T15:41:54;22.79;59.01
64880;HTU21D;51374;45.124;36.712;2022-09-09T15:44:21;22.75;59.09
64880;HTU21D;51374;45.124;36.712;2022-09-09T15:46:50;22.68;59.16
64880;HTU21D;51374;45.124;36.712;2022-09-09T15:49:18;22.64;59.22
64880;HTU21D;51374;45.124;36.712;2022-09-09T15:51:52;22.56;59.32
64880;HTU21D;51374;45.124;36.712;2022-09-09T15:54:19;22.52;59.38
64880;HTU21D;51374;45.124;36.712;2022-09-09T15:56:47;22.48;59.42
64880;HTU21D;51374;45.124;36.712;2022-09-09T15:59:15;22.43;59.45
64880;HTU21D;51374;45.124;36.712;2022-09-09T16:01:42;22.39;59.49
64880;HTU21D;51374;45.124;36.712;2022-09-09T16:04:09;22.35;59.51
64880;HTU21D;51374;45.124;36.712;2022-09-09T16:06:36;22.29;59.56
64880;HTU21D;51374;45.124;36.712;2022-09-09T16:09:04;22.28;59.61
64880;HTU21D;51374;45.124;36.712;2022-09-09T16:11:36;22.24;59.64
64880;HTU21D;51374;45.124;36.712;2022-09-09T16:14:03;22.21;59.67
64880;HTU21D;51374;45.124;36.712;2022-09-09T16:16:30;22.19;59.70
64880;HTU21D;51374;45.124;36.712;2022-09-09T16:18:57;22.14;59.73
64880;HTU21D;51374;45.124;36.712;2022-09-09T16:21:32;22.10;59.79
64880;HTU21D;51374;45.124;36.712;2022-09-09T16:24:00;22.06;59.83
64880;HTU21D;51374;45.124;36.712;2022-09-09T16:26:27;22.04;59.90
64880;HTU21D;51374;45.124;36.712;2022-09-09T16:28:53;22.02;59.95
64880;HTU21D;51374;45.124;36.712;2022-09-09T16:31:22;21.99;60.00
64880;HTU21D;51374;45.124;36.712;2022-09-09T16:33:49;21.98;60.02
64880;HTU21D;51374;45.124;36.712;2022-09-09T16:36:21;21.97;60.03
64880;HTU21D;51374;45.124;36.712;2022-09-09T16:38:48;21.96;60.08
64880;HTU21D;51374;45.124;36.712;2022-09-09T16:41:17;21.96;60.09
64880;HTU21D;51374;45.124;36.712;2022-09-09T16:43:44;21.95;60.11
64880;HTU21D;51374;45.124;36.712;2022-09-09T16:46:15;21.94;60.10
64880;HTU21D;51374;45.124;36.712;2022-09-09T16:48:43;21.92;60.09
64880;HTU21D;51374;45.124;36.712;2022-09-09T16:51:23;21.90;60.14
64880;HTU21D;51374;45.124;36.712;2022-09-09T16:53:50;21.89;60.14
64880;HTU21D;51374;45.124;36.712;2022-09-09T16:56:21;21.85;60.18
64880;HTU21D;51374;45.124;36.712;2022-09-09T16:58:56;21.84;60.22
64880;HTU21D;51374;45.124;36.712;2022-09-09T17:01:23;21.83;60.23
64880;HTU21D;51374;45.124;36.712;2022-09-09T17:03:53;21.82;60.25
64880;HTU21D;51374;45.124;36.712;2022-09-09T17:06:19;21.82;60.27
64880;HTU21D;51374;45.124;36.712;2022-09-09T17:08:45;21.82;60.30
64880;HTU21D;51374;45.124;36.712;2022-09-09T17:11:16;21.80;60.33
64880;HTU21D;51374;45.124;36.712;2022-09-09T17:13:45;21.77;60.37
64880;HTU21D;51374;45.124;36.712;2022-09-09T17:16:12;21.76;60.39
64880;HTU21D;51374;45.124;36.712;2022-09-09T17:18:39;21.76;60.40
64880;HTU21D;51374;45.124;36.712;2022-09-09T17:21:07;21.74;60.43
64880;HTU21D;51374;45.124;36.712;2022-09-09T17:23:35;21.74;60.46
64880;HTU21D;51374;45.124;36.712;2022-09-09T17:26:08;21.73;60.45
64880;HTU21D;51374;45.124;36.712;2022-09-09T17:28:39;21.73;60.46